Details From KBCT - Boca Raton
To KFXE - Fort Lauderdale Executive
Flight Number -
Tags Real Decoded
Created
Modified
Stats Distance 84 nm / 156 km
Max Altitude 4,000 ft / 1,219 m
Waypoints 7
Social Downloads 5
Likes 0
Share VATSIM

Download

Looking for another format? Having issues loading an existing format? Contact us
Advertisement - Login to hide

Notes

Decoded

Route

KBCT HEATT LONNI KUCEP KAINS VKZ KFXE

ID Type Via Altitude Latitude Longitude Leg Dist Tot Dist Heading (true) Name
O KBCT APT - 0 ft / 0 m 26.37231˚ -80.11439˚ - 0 nm - -
HEATT FIX - 4,000 ft / 1,219 m 26.49094˚ -79.94614˚ 11 nm 11 nm 52° / 52° -
LONNI FIX - 4,000 ft / 1,219 m 26.38372˚ -79.97653˚ 6 nm 18 nm 194° / 194° -
KUCEP FIX - 4,000 ft / 1,219 m 26.16375˚ -80.03869˚ 13 nm 31 nm 194° / 194° -
KAINS FIX - 4,000 ft / 1,219 m 25.96302˚ -80.09521˚ 12 nm 44 nm 194° / 194° -
VKZ VOR - 4,000 ft / 1,219 m 25.75190˚ -80.15444˚ 13 nm 57 nm 194° / 194° VIRGINIA KEY VOR-DME
O KFXE APT - 0 ft / 0 m 26.19894˚ -80.17387˚ 26 nm 84 nm 358° / 358° Fort Lauderdale Executive

Altitude Profile

Advertisement - Login to hide

KBCT

Details ICAO KBCT (BCT)
Name Boca Raton
Region United States
Timezone America/New_York (UTC-5.0)
Stats Elevation 13 ft / 4 m (AMSL)
Location 26.378484° -80.107696°
Runways 1
Magnetic Variation 6.841° W

METAR

KBCT 171247Z 09010KT 10SM BKN030 23/19 A3022

Decode

TAF

Not found

Departure Runways

ID Width Length Bearing (true) Bearing (mag) Surface Threshold Offset Overrun Length
05 150 ft / 46 m 6,283 ft / 1,915 m 44.19° 51.03° Asphalt 696 ft / 212 m 0 ft / 0 m
23 150 ft / 46 m 6,283 ft / 1,915 m 224.19° 231.03° Asphalt 378 ft / 115 m 0 ft / 0 m

KFXE

Details ICAO KFXE (FXE)
Name Fort Lauderdale Executive
Region United States
Timezone America/New_York (UTC-5.0)
Stats Elevation 13 ft / 4 m (AMSL)
Location 26.196981° -80.170441°
Runways 2
Magnetic Variation 6.775° W

METAR

KFXE 171331Z 09010KT 10SM SCT022 BKN030 OVC038 23/21 A3022 RMK AO2 T02330206

Decode

TAF

KFXE 171131Z 1712/1812 07009KT P6SM FEW050 FM171400 10010KT P6SM SCT030 BKN250 FM180000 11006KT P6SM FEW025 FEW250

Decode

Destination Runways

ID Width Length Bearing (true) Bearing (mag) Surface Threshold Offset Overrun Length
08 100 ft / 30 m 5,992 ft / 1,826 m 83.75° 90.53° Asphalt 0 ft / 0 m 0 ft / 0 m
13 100 ft / 30 m 4,002 ft / 1,220 m 128.95° 135.73° Asphalt 0 ft / 0 m 0 ft / 0 m
26 100 ft / 30 m 5,992 ft / 1,826 m 263.76° 270.54° Asphalt 0 ft / 0 m 0 ft / 0 m
31 100 ft / 30 m 4,002 ft / 1,220 m 308.95° 315.73° Asphalt 0 ft / 0 m 0 ft / 0 m

Approach Navaids

Runway Type Ident Frequency Range Bearing (true) Bearing (mag) Slope Elevation
08 Localiser IFXE 111.10 MHz 18 nm / 33 km 83.76° 90.54° - 9 ft / 3 m (AMSL)
08 Glidescope IFXE 111.10 MHz 10 nm / 19 km 83.76° 90.53° 3.00° 12 ft / 4 m (AMSL)